createdAt,value
2019-01-26T00:02:21.926Z,59.43
2019-01-26T00:05:10.159Z,57.33
2019-01-26T00:07:58.374Z,58.83
2019-01-26T00:10:46.848Z,63.80
2019-01-26T00:13:35.067Z,54.00
2019-01-26T00:16:23.282Z,57.63
2019-01-26T00:18:52.586Z,58.27
2019-01-26T00:21:21.704Z,60.87
2019-01-26T00:24:10.139Z,59.27
2019-01-26T00:26:58.640Z,51.73
2019-01-26T00:29:46.872Z,51.97
2019-01-26T00:32:28.093Z,56.37
2019-01-26T00:35:08.742Z,51.80
2019-01-26T00:37:49.706Z,62.43
2019-01-26T00:40:19.091Z,53.00
2019-01-26T00:43:07.385Z,55.80
2019-01-26T00:45:55.959Z,53.63
2019-01-26T00:48:44.159Z,50.23
2019-01-26T00:51:17.253Z,55.00
2019-01-26T00:53:44.446Z,52.97
2019-01-26T00:56:32.671Z,51.30
2019-01-26T00:59:20.967Z,50.13
2019-01-26T01:02:09.686Z,53.60
2019-01-26T01:04:58.182Z,46.40
2019-01-26T01:07:46.456Z,39.90
2019-01-26T01:10:27.763Z,47.87
2019-01-26T01:13:08.687Z,47.77
2019-01-26T01:15:38.066Z,50.90
2019-01-26T01:18:26.268Z,37.77
2019-01-26T01:21:14.496Z,41.27
2019-01-26T01:24:02.748Z,50.97
2019-01-26T01:26:50.972Z,48.47
2019-01-26T01:29:39.444Z,47.73
2019-01-26T01:32:27.896Z,44.70
2019-01-26T01:35:16.188Z,50.37
2019-01-26T01:37:45.289Z,40.63
2019-01-26T01:40:14.978Z,48.53
2019-01-26T01:42:44.173Z,42.50
2019-01-26T01:45:16.098Z,42.13
2019-01-26T01:48:04.316Z,46.20
2019-01-26T01:50:53.059Z,43.07
2019-01-26T01:53:41.301Z,46.13
2019-01-26T01:56:29.782Z,43.83
2019-01-26T01:59:19.500Z,43.20
2019-01-26T02:02:07.706Z,37.10
2019-01-26T02:04:56.191Z,44.00
2019-01-26T02:07:44.392Z,44.53
2019-01-26T02:10:15.251Z,45.73
2019-01-26T02:12:44.331Z,42.37
2019-01-26T02:15:32.567Z,39.03
2019-01-26T02:18:20.783Z,41.87
2019-01-26T02:21:09.526Z,39.37
2019-01-26T02:23:58.003Z,43.10
2019-01-26T02:26:46.509Z,39.80
2019-01-26T02:29:15.607Z,37.27
2019-01-26T02:32:04.082Z,38.10
2019-01-26T02:34:52.523Z,36.10
2019-01-26T02:37:40.740Z,36.70
2019-01-26T02:40:29.677Z,37.13
2019-01-26T02:43:17.886Z,43.10
2019-01-26T02:45:58.563Z,31.10
2019-01-26T02:48:28.246Z,32.47
2019-01-26T02:50:57.342Z,40.50
2019-01-26T02:53:46.090Z,40.57
2019-01-26T02:56:34.275Z,36.20
2019-01-26T02:59:22.572Z,34.63
2019-01-26T03:01:51.705Z,37.60
2019-01-26T03:04:40.173Z,39.73
2019-01-26T03:07:28.453Z,32.63
2019-01-26T03:09:57.555Z,29.53
2019-01-26T03:12:26.661Z,34.47
2019-01-26T03:14:55.803Z,33.60
2019-01-26T03:17:44.016Z,33.80
2019-01-26T03:20:14.253Z,34.00
2019-01-26T03:22:43.622Z,33.87
2019-01-26T03:25:13.264Z,36.47
2019-01-26T03:27:42.704Z,33.60
2019-01-26T03:30:30.917Z,31.73
2019-01-26T03:33:19.126Z,47.20
2019-01-26T03:36:07.596Z,34.73
2019-01-26T03:38:55.820Z,36.30
2019-01-26T03:41:44.024Z,42.77
2019-01-26T03:44:32.244Z,39.37
2019-01-26T03:47:14.043Z,37.40
2019-01-26T03:49:55.499Z,38.50
2019-01-26T03:52:36.100Z,31.87
2019-01-26T03:55:16.862Z,33.87
2019-01-26T03:57:46.278Z,32.97
2019-01-26T04:00:34.559Z,35.77
2019-01-26T04:03:23.054Z,34.23
2019-01-26T04:05:52.152Z,34.47
2019-01-26T04:08:40.681Z,37.40
2019-01-26T04:11:09.777Z,32.17
2019-01-26T04:13:39.431Z,34.30
2019-01-26T04:16:27.664Z,34.63
2019-01-26T04:19:16.135Z,37.93
2019-01-26T04:22:04.614Z,32.70
2019-01-26T04:24:53.532Z,31.43
2019-01-26T04:27:42.020Z,35.53
2019-01-26T04:30:13.947Z,31.17
2019-01-26T04:33:02.181Z,31.47
2019-01-26T04:35:50.388Z,41.67
2019-01-26T04:38:38.606Z,28.90
2019-01-26T04:41:26.806Z,36.80
2019-01-26T04:44:15.041Z,35.20
2019-01-26T04:46:56.415Z,32.37
2019-01-26T04:49:37.096Z,32.77
2019-01-26T04:52:17.578Z,31.03
2019-01-26T04:54:58.475Z,29.50
2019-01-26T04:57:38.861Z,32.67
2019-01-26T05:00:20.633Z,33.50
2019-01-26T05:03:01.324Z,31.47
2019-01-26T05:05:30.609Z,34.50
2019-01-26T05:08:18.809Z,32.17
2019-01-26T05:11:07.289Z,34.67
2019-01-26T05:13:55.787Z,29.70
2019-01-26T05:16:43.989Z,35.47
2019-01-26T05:19:32.211Z,33.10
2019-01-26T05:22:20.679Z,53.87
2019-01-26T05:25:08.892Z,35.10
2019-01-26T05:27:57.347Z,33.93
2019-01-26T05:30:45.567Z,29.93
2019-01-26T05:33:33.773Z,30.67
2019-01-26T05:36:14.846Z,32.27
2019-01-26T05:38:56.220Z,28.13
2019-01-26T05:41:37.309Z,27.63
2019-01-26T05:44:18.498Z,35.90
2019-01-26T05:46:59.375Z,29.90
2019-01-26T05:49:39.936Z,25.30
2019-01-26T05:52:21.439Z,26.30
2019-01-26T05:55:02.032Z,46.80
2019-01-26T05:57:43.487Z,42.67
2019-01-26T06:00:42.637Z,33.10
2019-01-26T06:03:23.288Z,45.17
2019-01-26T06:06:04.175Z,30.67
2019-01-26T06:08:44.886Z,28.27
2019-01-26T06:11:25.360Z,40.97
2019-01-26T06:14:06.588Z,35.73
2019-01-26T06:16:47.236Z,29.57
2019-01-26T06:19:28.151Z,35.73
2019-01-26T06:22:08.950Z,29.80
2019-01-26T06:24:50.466Z,26.60
2019-01-26T06:27:30.965Z,36.30
2019-01-26T06:30:12.388Z,28.80
2019-01-26T06:32:53.140Z,38.17
2019-01-26T06:35:33.622Z,28.60
2019-01-26T06:38:14.866Z,33.10
2019-01-26T06:40:55.546Z,38.00
2019-01-26T06:43:37.022Z,32.23
2019-01-26T06:46:17.524Z,38.37
2019-01-26T06:48:59.931Z,38.07
2019-01-26T06:51:53.843Z,27.20
2019-01-26T06:54:34.756Z,40.90
2019-01-26T06:57:15.557Z,45.83
2019-01-26T06:59:56.147Z,24.47
2019-01-26T07:02:36.624Z,27.10
2019-01-26T07:05:37.255Z,31.97
2019-01-26T07:08:20.430Z,28.47
2019-01-26T07:11:02.217Z,35.93
2019-01-26T07:13:43.335Z,43.27
2019-01-26T07:16:25.739Z,32.27
2019-01-26T07:19:06.879Z,29.50
2019-01-26T07:21:47.523Z,30.73
2019-01-26T07:24:28.629Z,29.20
2019-01-26T07:27:09.684Z,27.37
2019-01-26T07:29:50.810Z,26.30
2019-01-26T07:32:31.318Z,29.57
2019-01-26T07:35:11.775Z,27.30
2019-01-26T07:37:52.573Z,29.27
2019-01-26T07:40:33.319Z,28.10
2019-01-26T07:43:13.660Z,27.00
2019-01-26T07:45:55.125Z,30.97
2019-01-26T07:48:24.510Z,30.50
2019-01-26T07:51:13.140Z,30.10
2019-01-26T07:54:01.332Z,27.83
2019-01-26T07:56:50.109Z,27.63
2019-01-26T07:59:38.740Z,24.77
2019-01-26T08:02:27.063Z,28.00
2019-01-26T08:05:15.575Z,23.70
2019-01-26T08:08:03.995Z,23.87
2019-01-26T08:10:52.648Z,31.93
2019-01-26T08:13:40.981Z,21.43
2019-01-26T08:16:29.279Z,29.83
2019-01-26T08:19:17.480Z,24.30
2019-01-26T08:22:06.096Z,27.83
2019-01-26T08:24:54.429Z,28.03
2019-01-26T08:27:43.240Z,29.27
2019-01-26T08:30:31.842Z,29.80
2019-01-26T08:33:20.441Z,27.07
2019-01-26T08:36:08.799Z,22.50
2019-01-26T08:38:57.291Z,23.03
2019-01-26T08:41:45.623Z,23.07
2019-01-26T08:44:34.159Z,23.43
2019-01-26T08:47:15.543Z,24.60
2019-01-26T08:49:56.403Z,27.47
2019-01-26T08:52:25.895Z,25.27
2019-01-26T08:55:18.224Z,22.80
2019-01-26T08:58:04.420Z,22.27
2019-01-26T09:00:53.239Z,25.80
2019-01-26T09:06:49.782Z,23.90
2019-01-26T09:09:37.996Z,20.37
2019-01-26T09:12:28.991Z,28.00
2019-01-26T09:15:17.281Z,27.73
2019-01-26T09:18:05.532Z,20.10
2019-01-26T09:20:54.055Z,21.07
2019-01-26T09:23:42.715Z,21.00
2019-01-26T09:26:31.625Z,23.23
2019-01-26T09:29:19.831Z,22.40
2019-01-26T09:32:08.102Z,22.70
2019-01-26T09:34:57.811Z,24.77
2019-01-26T09:37:46.618Z,25.00
2019-01-26T09:40:34.903Z,25.10
2019-01-26T09:43:26.329Z,22.23
2019-01-26T09:46:14.148Z,26.87
2019-01-26T09:48:52.454Z,19.30
2019-01-26T09:51:35.250Z,18.77
2019-01-26T09:54:16.125Z,21.43
2019-01-26T09:56:59.839Z,25.50
2019-01-26T09:59:41.841Z,26.87
2019-01-26T10:05:11.911Z,18.70
2019-01-26T10:07:53.181Z,22.83
2019-01-26T10:10:33.866Z,20.10
2019-01-26T10:13:14.760Z,20.03
2019-01-26T10:15:55.634Z,20.60
2019-01-26T10:18:37.107Z,15.03
2019-01-26T10:21:18.336Z,18.37
2019-01-26T10:23:59.854Z,14.50
2019-01-26T10:26:40.376Z,19.07
2019-01-26T10:29:21.040Z,16.60
2019-01-26T10:32:01.842Z,18.87
2019-01-26T10:34:42.916Z,22.00
2019-01-26T10:37:26.385Z,19.40
2019-01-26T10:40:11.556Z,17.93
2019-01-26T10:42:53.174Z,21.03
2019-01-26T10:45:35.026Z,19.47
2019-01-26T10:48:05.279Z,19.97
2019-01-26T10:50:54.279Z,19.63
2019-01-26T10:53:42.576Z,20.00
2019-01-26T10:56:30.880Z,22.10
2019-01-26T10:59:00.399Z,19.70
2019-01-26T11:01:48.627Z,21.20
2019-01-26T11:04:36.965Z,17.63
2019-01-26T11:07:25.648Z,22.27
2019-01-26T11:10:14.158Z,22.93
2019-01-26T11:13:02.525Z,18.87
2019-01-26T11:15:50.762Z,17.17
2019-01-26T11:18:39.499Z,24.23
2019-01-26T11:21:27.806Z,21.30
2019-01-26T11:24:16.420Z,18.20
2019-01-26T11:27:04.866Z,20.80
2019-01-26T11:29:53.326Z,20.43
2019-01-26T11:32:22.571Z,20.27
2019-01-26T11:35:14.710Z,19.87
2019-01-26T11:38:02.970Z,16.70
2019-01-26T11:40:51.492Z,20.23
2019-01-26T11:43:39.743Z,23.03
2019-01-26T11:46:47.220Z,23.13
2019-01-26T11:49:35.455Z,19.33
2019-01-26T11:52:23.682Z,20.47
2019-01-26T11:55:31.226Z,17.60
2019-01-26T11:58:20.082Z,17.63
2019-01-26T12:01:27.364Z,22.60
2019-01-26T12:04:34.723Z,19.70
2019-01-26T12:07:28.892Z,18.90
2019-01-26T12:10:17.128Z,19.03
2019-01-26T12:13:05.512Z,15.87
2019-01-26T12:15:40.618Z,20.40
2019-01-26T12:18:29.350Z,15.27
2019-01-26T12:21:18.232Z,20.63
2019-01-26T12:24:06.783Z,16.20
2019-01-26T12:26:55.600Z,15.60
2019-01-26T12:35:39.246Z,17.07
2019-01-26T12:38:21.166Z,16.17
2019-01-26T12:43:52.425Z,17.57
2019-01-26T12:49:16.848Z,14.93
2019-01-26T12:54:41.032Z,18.50
2019-01-26T13:00:04.650Z,13.10
2019-01-26T13:02:45.643Z,15.93
2019-01-26T13:05:27.515Z,13.00
2019-01-26T13:10:52.451Z,15.60
2019-01-26T13:22:16.117Z,14.27
2019-01-26T13:24:56.811Z,15.40
2019-01-26T13:54:04.460Z,15.80
2019-01-26T14:02:38.572Z,14.23
2019-01-26T14:33:43.276Z,14.20
2019-01-26T14:54:27.167Z,18.93
2019-01-26T15:09:32.342Z,17.40
2019-01-26T15:18:20.342Z,14.20
2019-01-26T15:21:08.918Z,15.50
2019-01-26T15:28:15.826Z,14.20
2019-01-26T15:33:44.232Z,16.20
2019-01-26T15:39:15.865Z,14.73
2019-01-26T15:42:26.222Z,17.33
2019-01-26T15:44:55.924Z,14.13
2019-01-26T15:56:24.485Z,15.00
2019-01-26T15:59:53.131Z,12.80
2019-01-26T16:14:31.555Z,18.87
2019-01-26T16:17:08.120Z,16.30
2019-01-26T16:20:53.258Z,16.47
2019-01-26T16:23:27.712Z,22.50
2019-01-26T16:26:19.299Z,23.30
2019-01-26T16:31:53.984Z,12.73
2019-01-26T16:41:07.625Z,14.03
2019-01-26T16:58:36.240Z,16.83
2019-01-26T17:01:25.298Z,18.93
2019-01-26T17:04:14.174Z,14.43
2019-01-26T17:07:03.100Z,18.87
2019-01-26T17:09:57.855Z,22.27
2019-01-26T17:13:05.977Z,17.43
2019-01-26T17:15:35.584Z,18.30
2019-01-26T17:18:26.311Z,19.13
2019-01-26T17:21:01.451Z,18.30
2019-01-26T17:23:51.607Z,18.47
2019-01-26T17:26:40.556Z,17.73
2019-01-26T17:29:29.034Z,21.97
2019-01-26T17:32:11.025Z,22.70
2019-01-26T17:34:40.646Z,19.03
2019-01-26T17:37:33.194Z,25.40
2019-01-26T17:40:22.263Z,22.10
2019-01-26T17:46:04.209Z,25.20
2019-01-26T17:48:53.500Z,26.90
2019-01-26T17:51:42.098Z,34.50
2019-01-26T17:54:12.207Z,15.93
2019-01-26T17:56:42.176Z,19.60
2019-01-26T17:59:31.248Z,21.80
2019-01-26T18:02:01.234Z,19.30
2019-01-26T18:04:50.038Z,14.40
2019-01-26T18:07:38.572Z,15.33
2019-01-26T18:10:27.521Z,14.63
2019-01-26T18:13:17.610Z,14.07
2019-01-26T18:16:06.227Z,17.70
2019-01-26T18:18:54.676Z,26.37
2019-01-26T18:21:43.159Z,13.57
2019-01-26T18:24:31.815Z,15.33
2019-01-26T18:27:20.399Z,14.47
2019-01-26T18:30:01.939Z,14.10
2019-01-26T18:32:43.322Z,12.20
2019-01-26T18:35:24.308Z,13.60
2019-01-26T18:38:05.847Z,12.80
2019-01-26T18:40:35.735Z,13.10
2019-01-26T18:43:24.106Z,18.67
2019-01-26T18:46:12.343Z,13.30
2019-01-26T18:49:00.964Z,17.40
2019-01-26T18:51:49.638Z,12.13
2019-01-26T18:54:38.195Z,10.87
2019-01-26T18:57:26.694Z,11.90
2019-01-26T19:00:16.885Z,13.33
2019-01-26T19:03:24.406Z,10.40
2019-01-26T19:06:12.712Z,10.97
2019-01-26T19:09:00.968Z,11.97
2019-01-26T19:11:49.181Z,13.17
2019-01-26T19:14:37.444Z,9.90
2019-01-26T19:17:25.927Z,11.30
2019-01-26T19:20:14.510Z,9.10
2019-01-26T19:23:03.640Z,13.87
2019-01-26T19:25:51.880Z,11.40
2019-01-26T19:28:40.158Z,15.27
2019-01-26T19:31:21.727Z,14.00
2019-01-26T19:34:03.571Z,12.87
2019-01-26T19:36:44.693Z,13.97
2019-01-26T19:39:26.026Z,11.30
2019-01-26T19:42:07.780Z,12.37
2019-01-26T19:44:48.683Z,10.77
2019-01-26T19:47:29.649Z,14.20
2019-01-26T19:50:10.542Z,12.17
2019-01-26T19:52:51.643Z,14.97
2019-01-26T19:55:33.018Z,10.33
2019-01-26T19:58:14.674Z,11.00
2019-01-26T20:00:56.306Z,11.23
2019-01-26T20:03:37.503Z,11.23
2019-01-26T20:06:18.304Z,8.67
2019-01-26T20:08:58.901Z,9.90
2019-01-26T20:11:39.278Z,10.50
2019-01-26T20:14:20.991Z,10.50
2019-01-26T20:17:01.603Z,9.27
2019-01-26T20:19:30.789Z,8.90
2019-01-26T20:22:18.988Z,14.97
2019-01-26T20:25:07.527Z,8.20
2019-01-26T20:27:55.724Z,11.67
2019-01-26T20:30:36.731Z,12.87
2019-01-26T20:33:17.542Z,10.60
2019-01-26T20:35:58.705Z,13.93
2019-01-26T20:38:39.218Z,12.13
2019-01-26T20:41:20.161Z,12.20
2019-01-26T20:44:01.296Z,18.20
2019-01-26T20:46:41.854Z,11.13
2019-01-26T20:49:11.314Z,14.27
2019-01-26T20:51:59.611Z,13.33
2019-01-26T20:54:47.853Z,11.60
2019-01-26T20:57:17.235Z,13.00
2019-01-26T21:03:02.246Z,13.27
2019-01-26T21:05:50.752Z,10.80
2019-01-26T21:08:39.220Z,9.93
2019-01-26T21:11:27.479Z,11.40
2019-01-26T21:14:15.966Z,11.43
2019-01-26T21:17:04.168Z,15.83
2019-01-26T21:19:52.672Z,11.20
2019-01-26T21:22:40.876Z,11.10
2019-01-26T21:25:29.791Z,12.40
2019-01-26T21:28:18.684Z,12.53
2019-01-26T21:31:00.258Z,12.90
2019-01-26T21:33:29.535Z,11.67
2019-01-26T21:35:58.681Z,10.93
2019-01-26T21:38:28.036Z,13.87
2019-01-26T21:40:57.238Z,12.00
2019-01-26T21:43:26.323Z,13.03
2019-01-26T21:45:55.449Z,11.97
2019-01-26T21:48:24.888Z,12.50
2019-01-26T21:50:54.283Z,11.10
2019-01-26T21:53:23.632Z,10.47
2019-01-26T21:55:53.130Z,13.33
2019-01-26T21:58:41.612Z,12.70
2019-01-26T22:01:11.003Z,12.70
2019-01-26T22:03:40.096Z,12.93
2019-01-26T22:06:28.335Z,15.03
2019-01-26T22:08:57.426Z,13.63
2019-01-26T22:11:26.662Z,13.13
2019-01-26T22:13:55.794Z,13.57
2019-01-26T22:16:44.048Z,12.90
2019-01-26T22:19:32.249Z,11.43
2019-01-26T22:22:20.491Z,10.53
2019-01-26T22:28:24.294Z,16.20
2019-01-26T22:31:05.499Z,12.60
2019-01-26T22:33:46.214Z,9.63
2019-01-26T22:36:15.383Z,11.23
2019-01-26T22:39:24.101Z,12.27
2019-01-26T22:42:12.608Z,8.47
2019-01-26T22:45:00.846Z,10.63
2019-01-26T22:47:49.099Z,9.10
2019-01-26T22:50:18.970Z,10.60
2019-01-26T22:53:07.418Z,10.50
2019-01-26T22:55:55.635Z,11.47
2019-01-26T22:58:44.025Z,10.07
2019-01-26T23:01:36.559Z,10.33
2019-01-26T23:04:27.618Z,9.00
2019-01-26T23:07:35.185Z,11.77
2019-01-26T23:10:42.491Z,10.07
2019-01-26T23:13:49.847Z,9.53
2019-01-26T23:16:57.183Z,8.77
2019-01-26T23:20:04.663Z,7.90
2019-01-26T23:23:11.984Z,11.40
2019-01-26T23:26:19.326Z,8.97
2019-01-26T23:29:26.683Z,10.17
2019-01-26T23:32:08.024Z,8.57
2019-01-26T23:34:49.182Z,9.50
2019-01-26T23:37:29.662Z,8.27
2019-01-26T23:40:11.163Z,6.83
2019-01-26T23:42:51.705Z,7.20
2019-01-26T23:45:33.036Z,9.60
2019-01-26T23:48:14.323Z,8.00
2019-01-26T23:50:54.978Z,7.40
2019-01-26T23:53:36.301Z,7.07
2019-01-26T23:56:17.089Z,8.13
2019-01-26T23:58:58.511Z,8.67
